createdAt,value
2022-10-19T00:00:47.808Z,18.63
2022-10-19T00:03:18.245Z,18.32
2022-10-19T00:05:47.416Z,18.26
2022-10-19T00:08:13.995Z,18.33
2022-10-19T00:10:41.345Z,18.52
2022-10-19T00:13:08.462Z,18.46
2022-10-19T00:15:39.421Z,18.48
2022-10-19T00:18:06.766Z,18.46
2022-10-19T00:20:34.165Z,18.51
2022-10-19T00:23:00.746Z,18.56
2022-10-19T00:25:27.427Z,18.56
2022-10-19T00:27:54.016Z,18.61
2022-10-19T00:30:20.839Z,18.69
2022-10-19T00:32:47.414Z,18.71
2022-10-19T00:35:14.011Z,18.67
2022-10-19T00:37:40.631Z,18.60
2022-10-19T00:40:08.041Z,18.62
2022-10-19T00:42:34.755Z,18.70
2022-10-19T00:45:06.573Z,18.72
2022-10-19T00:47:34.152Z,18.50
2022-10-19T00:50:01.139Z,17.98
2022-10-19T00:52:28.011Z,17.27
2022-10-19T00:54:56.996Z,16.79
2022-10-19T00:57:26.526Z,17.40
2022-10-19T00:59:53.187Z,17.77
2022-10-19T01:02:19.835Z,17.93
2022-10-19T01:04:51.861Z,18.01
2022-10-19T01:07:19.796Z,18.05
2022-10-19T01:09:46.734Z,18.05
2022-10-19T01:12:36.974Z,18.06
2022-10-19T01:15:33.710Z,17.97
2022-10-19T01:18:34.982Z,18.05
2022-10-19T01:21:26.162Z,18.19
2022-10-19T01:24:11.928Z,18.02
2022-10-19T01:26:56.467Z,18.14
2022-10-19T01:29:38.678Z,17.98
2022-10-19T01:32:24.152Z,18.04
2022-10-19T01:35:06.611Z,18.04
2022-10-19T01:37:44.082Z,17.90
2022-10-19T01:40:43.186Z,18.06
2022-10-19T01:43:19.063Z,17.90
2022-10-19T01:45:53.995Z,17.84
2022-10-19T01:48:29.274Z,17.94
2022-10-19T01:51:07.764Z,17.97
2022-10-19T01:53:41.710Z,17.94
2022-10-19T01:56:09.686Z,17.96
2022-10-19T01:58:39.608Z,17.88
2022-10-19T02:03:42.375Z,17.85
2022-10-19T02:06:11.590Z,17.83
2022-10-19T02:08:43.971Z,17.78
2022-10-19T02:11:10.829Z,17.73
2022-10-19T02:13:39.846Z,17.75
2022-10-19T02:16:10.982Z,17.63
2022-10-19T02:18:43.403Z,17.34
2022-10-19T02:21:10.706Z,17.31
2022-10-19T02:23:37.532Z,17.65
2022-10-19T02:26:04.792Z,17.70
2022-10-19T02:28:31.670Z,17.74
2022-10-19T02:30:59.184Z,17.72
2022-10-19T02:33:26.988Z,17.69
2022-10-19T02:35:53.633Z,17.82
2022-10-19T02:38:22.590Z,17.92
2022-10-19T02:41:02.283Z,18.08
2022-10-19T02:43:32.059Z,18.06
2022-10-19T02:46:08.719Z,17.70
2022-10-19T02:48:38.103Z,17.67
2022-10-19T02:51:04.746Z,17.86
2022-10-19T02:53:31.390Z,17.93
2022-10-19T02:55:58.079Z,17.94
2022-10-19T02:58:24.713Z,17.96
2022-10-19T03:00:51.358Z,17.88
2022-10-19T03:03:17.971Z,17.91
2022-10-19T03:05:44.600Z,17.90
2022-10-19T03:08:11.211Z,17.83
2022-10-19T03:10:37.797Z,17.90
2022-10-19T03:13:04.382Z,17.81
2022-10-19T03:15:30.977Z,17.89
2022-10-19T03:17:57.625Z,17.77
2022-10-19T03:20:24.279Z,17.73
2022-10-19T03:22:50.994Z,17.72
2022-10-19T03:25:17.681Z,17.34
2022-10-19T03:27:44.275Z,17.07
2022-10-19T03:30:11.219Z,16.92
2022-10-19T03:32:37.850Z,16.82
2022-10-19T03:35:04.897Z,16.79
2022-10-19T03:37:31.757Z,16.73
2022-10-19T03:39:58.619Z,16.53
2022-10-19T03:42:25.236Z,16.60
2022-10-19T03:44:51.810Z,16.54
2022-10-19T03:47:18.405Z,16.66
2022-10-19T03:49:45.091Z,16.63
2022-10-19T03:52:11.690Z,16.59
2022-10-19T03:54:38.415Z,16.53
2022-10-19T03:57:05.057Z,16.61
2022-10-19T03:59:31.838Z,16.85
2022-10-19T04:01:58.393Z,17.07
2022-10-19T04:04:25.110Z,17.14
2022-10-19T04:06:53.513Z,17.25
2022-10-19T04:09:22.073Z,17.34
2022-10-19T04:11:49.349Z,17.31
2022-10-19T04:14:26.860Z,17.38
2022-10-19T04:17:01.643Z,17.43
2022-10-19T04:19:28.352Z,17.50
2022-10-19T04:21:55.038Z,17.25
2022-10-19T04:24:21.755Z,17.17
2022-10-19T04:26:51.496Z,17.28
2022-10-19T04:29:20.163Z,17.34
2022-10-19T04:31:49.374Z,17.35
2022-10-19T04:34:16.423Z,17.53
2022-10-19T04:36:43.031Z,17.62
2022-10-19T04:39:09.911Z,17.63
2022-10-19T04:41:38.297Z,17.63
2022-10-19T04:44:08.625Z,17.61
2022-10-19T04:46:35.396Z,17.66
2022-10-19T04:49:04.287Z,17.71
2022-10-19T04:51:30.976Z,17.71
2022-10-19T04:53:59.665Z,17.68
2022-10-19T04:56:28.277Z,17.76
2022-10-19T04:58:57.521Z,17.45
2022-10-19T05:01:25.607Z,16.93
2022-10-19T05:04:00.557Z,17.00
2022-10-19T05:06:27.810Z,16.45
2022-10-19T05:08:54.505Z,16.67
2022-10-19T05:11:21.344Z,16.93
2022-10-19T05:13:48.888Z,17.20
2022-10-19T05:16:21.314Z,17.09
2022-10-19T05:18:59.676Z,17.26
2022-10-19T05:21:28.844Z,17.19
2022-10-19T05:23:56.706Z,17.24
2022-10-19T05:26:25.926Z,17.29
2022-10-19T05:28:59.450Z,17.36
2022-10-19T05:31:28.543Z,17.35
2022-10-19T05:33:58.641Z,17.33
2022-10-19T05:36:27.907Z,17.28
2022-10-19T05:38:57.049Z,17.38
2022-10-19T05:41:25.598Z,17.47
2022-10-19T05:43:57.304Z,17.51
2022-10-19T05:46:25.544Z,17.47
2022-10-19T05:48:52.622Z,17.48
2022-10-19T05:51:21.701Z,17.50
2022-10-19T05:53:48.730Z,17.47
2022-10-19T05:56:18.074Z,17.49
2022-10-19T05:58:45.142Z,17.40
2022-10-19T06:01:12.524Z,17.47
2022-10-19T06:03:39.148Z,17.54
2022-10-19T06:06:07.576Z,17.56
2022-10-19T06:08:34.697Z,17.60
2022-10-19T06:11:10.707Z,17.61
2022-10-19T06:13:38.423Z,17.66
2022-10-19T06:16:06.228Z,17.62
2022-10-19T06:18:33.315Z,17.63
2022-10-19T06:21:05.709Z,17.66
2022-10-19T06:23:34.190Z,17.65
2022-10-19T06:26:05.947Z,17.73
2022-10-19T06:28:32.751Z,17.73
2022-10-19T06:31:00.238Z,17.75
2022-10-19T06:33:28.098Z,17.75
2022-10-19T06:35:54.662Z,17.70
2022-10-19T06:38:21.543Z,17.65
2022-10-19T06:40:49.219Z,17.71
2022-10-19T06:43:15.879Z,17.77
2022-10-19T06:45:42.451Z,17.79
2022-10-19T06:48:09.104Z,17.73
2022-10-19T06:50:35.684Z,17.78
2022-10-19T06:53:02.335Z,17.65
2022-10-19T06:55:28.903Z,17.58
2022-10-19T06:57:55.483Z,17.28
2022-10-19T07:00:22.076Z,17.15
2022-10-19T07:02:48.646Z,17.14
2022-10-19T07:05:15.326Z,17.00
2022-10-19T07:07:41.958Z,17.04
2022-10-19T07:10:08.970Z,16.89
2022-10-19T07:12:35.559Z,16.90
2022-10-19T07:15:02.142Z,16.85
2022-10-19T07:17:28.783Z,16.80
2022-10-19T07:19:55.483Z,16.73
2022-10-19T07:22:27.211Z,16.85
2022-10-19T07:24:54.739Z,16.85
2022-10-19T07:27:21.687Z,16.82
2022-10-19T07:29:48.283Z,16.85
2022-10-19T07:32:14.873Z,16.88
2022-10-19T07:34:41.521Z,16.90
2022-10-19T07:37:08.149Z,16.80
2022-10-19T07:39:34.724Z,16.75
2022-10-19T07:42:01.358Z,16.54
2022-10-19T07:44:28.107Z,16.37
2022-10-19T07:46:54.739Z,16.35
2022-10-19T07:49:21.850Z,16.43
2022-10-19T07:51:48.439Z,16.26
2022-10-19T07:54:15.427Z,16.12
2022-10-19T07:56:42.012Z,16.17
2022-10-19T07:59:10.299Z,16.20
2022-10-19T08:01:41.432Z,16.24
2022-10-19T08:06:55.179Z,16.30
2022-10-19T08:12:12.456Z,16.55
2022-10-19T08:14:40.603Z,16.64
2022-10-19T08:17:07.195Z,16.78
2022-10-19T08:19:33.783Z,16.90
2022-10-19T08:22:00.381Z,16.92
2022-10-19T08:24:26.978Z,17.12
2022-10-19T08:26:53.558Z,17.20
2022-10-19T08:29:21.124Z,17.37
2022-10-19T08:31:48.984Z,17.35
2022-10-19T08:34:16.553Z,17.27
2022-10-19T08:36:43.352Z,17.29
2022-10-19T08:39:12.681Z,17.37
2022-10-19T08:41:42.358Z,17.38
2022-10-19T08:44:18.223Z,17.45
2022-10-19T08:47:02.401Z,17.66
2022-10-19T08:49:31.831Z,17.40
2022-10-19T08:52:05.076Z,17.53
2022-10-19T08:54:51.147Z,17.05
2022-10-19T08:57:36.882Z,17.01
2022-10-19T09:00:10.315Z,16.99
2022-10-19T09:02:56.593Z,16.86
2022-10-19T09:05:52.792Z,16.81
2022-10-19T09:08:20.606Z,16.98
2022-10-19T09:10:50.994Z,17.23
2022-10-19T09:14:03.836Z,17.17
2022-10-19T09:16:30.355Z,17.14
2022-10-19T09:18:56.985Z,17.05
2022-10-19T09:21:55.157Z,17.34
2022-10-19T09:24:45.702Z,17.63
2022-10-19T09:27:37.501Z,17.93
2022-10-19T09:30:19.116Z,17.90
2022-10-19T09:32:47.477Z,18.03
2022-10-19T09:35:23.271Z,18.01
2022-10-19T09:37:51.238Z,17.99
2022-10-19T09:40:22.539Z,18.07
2022-10-19T09:42:56.947Z,18.02
2022-10-19T09:45:54.071Z,17.92
2022-10-19T09:48:45.820Z,18.37
2022-10-19T09:51:15.027Z,18.53
2022-10-19T09:53:45.965Z,18.61
2022-10-19T09:56:19.862Z,18.77
2022-10-19T09:58:55.339Z,18.80
2022-10-19T10:01:41.952Z,18.69
2022-10-19T10:04:18.604Z,18.56
2022-10-19T10:06:48.101Z,18.64
2022-10-19T10:09:22.318Z,18.85
2022-10-19T10:11:50.922Z,18.95
2022-10-19T10:14:26.923Z,18.96
2022-10-19T10:17:06.353Z,18.86
2022-10-19T10:19:35.645Z,18.90
2022-10-19T10:22:04.190Z,19.07
2022-10-19T10:24:32.917Z,19.12
2022-10-19T10:27:02.339Z,19.25
2022-10-19T10:29:33.679Z,19.28
2022-10-19T10:32:06.192Z,19.22
2022-10-19T10:34:45.956Z,19.28
2022-10-19T10:37:38.915Z,19.43
2022-10-19T10:40:07.859Z,19.48
2022-10-19T10:42:44.311Z,19.41
2022-10-19T10:45:24.937Z,19.54
2022-10-19T10:47:52.969Z,19.19
2022-10-19T10:50:23.900Z,19.39
2022-10-19T10:53:26.879Z,19.59
2022-10-19T10:55:56.247Z,19.76
2022-10-19T10:58:38.943Z,19.95
2022-10-19T11:01:13.328Z,19.90
2022-10-19T11:03:51.388Z,19.36
2022-10-19T11:06:21.133Z,18.91
2022-10-19T11:09:23.101Z,18.83
2022-10-19T11:11:55.979Z,19.02
2022-10-19T11:14:42.785Z,19.37
2022-10-19T11:17:28.486Z,19.28
2022-10-19T11:19:55.179Z,19.13
2022-10-19T11:22:43.625Z,18.97
2022-10-19T11:25:22.210Z,18.99
2022-10-19T11:28:00.715Z,19.17
2022-10-19T11:30:29.401Z,19.04
2022-10-19T11:33:13.084Z,18.80
2022-10-19T11:35:50.376Z,18.89
2022-10-19T11:38:30.892Z,19.33
2022-10-19T11:41:18.275Z,18.44
2022-10-19T11:44:06.544Z,18.37
2022-10-19T11:46:45.740Z,18.53
2022-10-19T11:49:18.192Z,18.59
2022-10-19T11:52:05.706Z,18.58
2022-10-19T11:54:53.239Z,18.55
2022-10-19T11:57:26.249Z,18.81
2022-10-19T12:00:08.142Z,19.21
2022-10-19T12:03:06.006Z,19.17
2022-10-19T12:05:52.275Z,19.14
2022-10-19T12:08:53.864Z,19.56
2022-10-19T12:11:43.716Z,20.20
2022-10-19T12:14:16.418Z,20.26
2022-10-19T12:16:49.734Z,20.58
2022-10-19T12:19:29.502Z,20.76
2022-10-19T12:22:02.355Z,20.90
2022-10-19T12:24:30.658Z,21.13
2022-10-19T12:26:58.456Z,21.08
2022-10-19T12:29:39.654Z,21.22
2022-10-19T12:32:07.223Z,21.14
2022-10-19T12:35:11.094Z,21.57
2022-10-19T12:37:49.779Z,22.43
2022-10-19T12:40:34.099Z,22.66
2022-10-19T12:43:09.176Z,22.50
2022-10-19T12:45:41.558Z,22.98
2022-10-19T12:48:08.085Z,23.59
2022-10-19T12:50:49.877Z,24.41
2022-10-19T12:53:38.778Z,24.53
2022-10-19T12:56:07.351Z,24.85
2022-10-19T12:58:59.759Z,25.21
2022-10-19T13:01:33.943Z,25.21
2022-10-19T13:04:20.802Z,23.90
2022-10-19T13:06:57.306Z,24.17
2022-10-19T13:09:32.813Z,24.64
2022-10-19T13:12:17.877Z,24.81
2022-10-19T13:15:00.011Z,25.04
2022-10-19T13:17:43.989Z,25.38
2022-10-19T13:20:13.673Z,25.10
2022-10-19T13:22:49.534Z,24.87
2022-10-19T13:25:30.998Z,25.07
2022-10-19T13:28:01.319Z,25.00
2022-10-19T13:30:38.200Z,25.44
2022-10-19T13:33:28.570Z,26.04
2022-10-19T13:36:02.651Z,25.76
2022-10-19T13:38:39.908Z,25.61
2022-10-19T13:41:09.132Z,25.74
2022-10-19T13:44:12.089Z,25.73
2022-10-19T13:46:41.278Z,25.45
2022-10-19T13:49:13.091Z,25.36
2022-10-19T13:51:45.410Z,25.32
2022-10-19T13:54:14.626Z,25.18
2022-10-19T13:56:59.881Z,25.29
2022-10-19T13:59:36.922Z,25.25
2022-10-19T14:02:40.346Z,25.25
2022-10-19T14:05:24.972Z,25.21
2022-10-19T14:08:03.316Z,24.86
2022-10-19T14:10:32.947Z,25.04
2022-10-19T14:13:01.892Z,25.34
2022-10-19T14:15:34.231Z,25.06
2022-10-19T14:18:03.738Z,24.16
2022-10-19T14:20:38.413Z,23.96
2022-10-19T14:23:19.520Z,23.24
2022-10-19T14:25:54.856Z,22.81
2022-10-19T14:28:23.494Z,22.88
2022-10-19T14:31:06.948Z,22.73
2022-10-19T14:33:44.364Z,22.74
2022-10-19T14:36:18.082Z,22.78
2022-10-19T14:38:45.231Z,22.71
2022-10-19T14:41:22.035Z,22.58
2022-10-19T14:43:48.636Z,22.66
2022-10-19T14:46:16.442Z,22.93
2022-10-19T14:48:45.915Z,22.73
2022-10-19T14:51:30.501Z,22.71
2022-10-19T14:54:23.991Z,22.82
2022-10-19T14:56:55.601Z,22.98
2022-10-19T14:59:30.085Z,23.27
2022-10-19T15:02:02.603Z,23.54
2022-10-19T15:04:34.396Z,23.70
2022-10-19T15:07:05.113Z,23.90
2022-10-19T15:09:47.884Z,23.94
2022-10-19T15:12:20.090Z,23.80
2022-10-19T15:14:47.965Z,23.91
2022-10-19T15:17:59.319Z,23.95
2022-10-19T15:20:49.351Z,24.07
2022-10-19T15:23:40.722Z,24.22
2022-10-19T15:26:19.688Z,23.70
2022-10-19T15:28:47.507Z,23.56
2022-10-19T15:31:18.450Z,23.41
2022-10-19T15:33:55.255Z,22.93
2022-10-19T15:36:23.459Z,22.52
2022-10-19T15:39:17.949Z,22.11
2022-10-19T15:41:52.129Z,22.14
2022-10-19T15:44:34.109Z,22.08
2022-10-19T15:47:15.901Z,21.60
2022-10-19T15:49:42.500Z,21.60
2022-10-19T15:52:23.729Z,21.41
2022-10-19T15:54:51.564Z,21.24
2022-10-19T15:57:38.356Z,20.95
2022-10-19T16:00:13.131Z,20.71
2022-10-19T16:02:39.813Z,20.53
2022-10-19T16:07:40.831Z,20.65
2022-10-19T16:10:13.313Z,20.56
2022-10-19T16:12:39.912Z,20.71
2022-10-19T16:15:07.111Z,20.61
2022-10-19T16:17:33.967Z,20.69
2022-10-19T16:20:00.719Z,20.83
2022-10-19T16:22:27.358Z,20.65
2022-10-19T16:24:53.939Z,20.73
2022-10-19T16:27:20.607Z,20.54
2022-10-19T16:29:47.189Z,20.59
2022-10-19T16:32:13.823Z,20.75
2022-10-19T16:34:41.399Z,20.75
2022-10-19T16:37:08.025Z,20.56
2022-10-19T16:39:35.128Z,20.34
2022-10-19T16:42:01.759Z,20.55
2022-10-19T16:44:28.394Z,20.50
2022-10-19T16:46:57.922Z,20.52
2022-10-19T16:49:24.775Z,20.44
2022-10-19T16:51:54.711Z,20.49
2022-10-19T16:54:24.610Z,20.45
2022-10-19T16:56:51.196Z,20.37
2022-10-19T16:59:18.809Z,20.22
2022-10-19T17:01:47.189Z,20.26
2022-10-19T17:04:17.211Z,20.22
2022-10-19T17:06:44.210Z,20.29
2022-10-19T17:11:57.504Z,20.30
2022-10-19T17:14:24.102Z,20.20
2022-10-19T17:16:50.679Z,20.17
2022-10-19T17:19:17.311Z,20.05
2022-10-19T17:21:43.918Z,20.07
2022-10-19T17:24:21.989Z,19.93
2022-10-19T17:26:50.882Z,19.76
2022-10-19T17:29:18.087Z,19.83
2022-10-19T17:31:44.745Z,19.71
2022-10-19T17:34:12.086Z,19.73
2022-10-19T17:36:44.777Z,19.76
2022-10-19T17:39:18.187Z,19.71
2022-10-19T17:41:49.431Z,19.61
2022-10-19T17:44:17.450Z,19.30
2022-10-19T17:46:44.919Z,19.24
2022-10-19T17:49:12.574Z,19.06
2022-10-19T17:51:39.547Z,19.08
2022-10-19T17:54:12.256Z,19.08
2022-10-19T17:56:40.255Z,19.09
2022-10-19T17:59:08.887Z,18.97
2022-10-19T18:01:36.943Z,18.83
2022-10-19T18:04:04.267Z,18.86
2022-10-19T18:06:33.474Z,18.65
2022-10-19T18:09:01.794Z,18.59
2022-10-19T18:11:31.195Z,18.53
2022-10-19T18:14:00.618Z,18.15
2022-10-19T18:16:29.153Z,18.25
2022-10-19T18:18:57.737Z,18.20
2022-10-19T18:21:31.240Z,17.77
2022-10-19T18:23:59.319Z,17.73
2022-10-19T18:26:29.687Z,17.60
2022-10-19T18:28:57.379Z,17.43
2022-10-19T18:31:34.066Z,17.02
2022-10-19T18:34:03.002Z,17.29
2022-10-19T18:36:30.667Z,17.35
2022-10-19T18:39:00.579Z,17.26
2022-10-19T18:41:28.340Z,17.27
2022-10-19T18:43:57.354Z,16.95
2022-10-19T18:46:25.958Z,16.98
2022-10-19T18:48:53.654Z,16.85
2022-10-19T18:51:22.118Z,16.71
2022-10-19T18:53:48.833Z,16.64
2022-10-19T18:56:18.464Z,16.51
2022-10-19T18:58:45.559Z,16.53
2022-10-19T19:01:24.832Z,16.41
2022-10-19T19:03:53.987Z,16.40
2022-10-19T19:06:26.281Z,16.05
2022-10-19T19:08:57.255Z,16.16
2022-10-19T19:11:26.016Z,16.26
2022-10-19T19:13:57.992Z,16.16
2022-10-19T19:16:25.863Z,16.11
2022-10-19T19:18:52.497Z,15.68
2022-10-19T19:21:21.712Z,15.30
2022-10-19T19:23:49.552Z,15.22
2022-10-19T19:26:17.455Z,15.05
2022-10-19T19:28:46.393Z,14.79
2022-10-19T19:31:17.263Z,14.87
2022-10-19T19:33:45.463Z,14.83
2022-10-19T19:36:13.758Z,14.75
2022-10-19T19:38:40.775Z,14.66
2022-10-19T19:41:09.475Z,14.55
2022-10-19T19:43:37.407Z,14.37
2022-10-19T19:46:09.375Z,14.23
2022-10-19T19:48:37.054Z,14.23
2022-10-19T19:51:03.888Z,14.15
2022-10-19T19:53:30.683Z,14.16
2022-10-19T19:55:57.328Z,14.15
2022-10-19T19:58:23.917Z,14.02
2022-10-19T20:00:50.555Z,14.04
2022-10-19T20:03:17.190Z,14.07
2022-10-19T20:05:43.822Z,14.06
2022-10-19T20:08:11.322Z,14.06
2022-10-19T20:10:39.781Z,14.13
2022-10-19T20:13:06.696Z,14.18
2022-10-19T20:15:33.637Z,14.05
2022-10-19T20:18:00.208Z,13.97
2022-10-19T20:20:26.791Z,14.00
2022-10-19T20:22:53.431Z,13.96
2022-10-19T20:25:19.987Z,13.96
2022-10-19T20:27:46.579Z,13.78
2022-10-19T20:30:13.208Z,13.72
2022-10-19T20:32:39.809Z,13.62
2022-10-19T20:35:07.538Z,13.65
2022-10-19T20:37:34.326Z,13.70
2022-10-19T20:40:03.389Z,13.77
2022-10-19T20:42:34.199Z,13.60
2022-10-19T20:45:01.050Z,13.67
2022-10-19T20:47:27.723Z,13.59
2022-10-19T20:49:54.385Z,13.65
2022-10-19T20:52:21.047Z,13.67
2022-10-19T20:54:48.470Z,13.66
2022-10-19T20:57:15.318Z,13.61
2022-10-19T20:59:43.948Z,13.60
2022-10-19T21:02:11.376Z,13.48
2022-10-19T21:04:38.131Z,13.38
2022-10-19T21:07:05.139Z,13.35
2022-10-19T21:09:32.054Z,13.41
2022-10-19T21:11:58.711Z,13.31
2022-10-19T21:14:29.983Z,13.19
2022-10-19T21:17:00.347Z,13.23
2022-10-19T21:19:28.882Z,13.19
2022-10-19T21:22:03.712Z,13.10
2022-10-19T21:24:36.048Z,13.19
2022-10-19T21:27:05.197Z,13.21
2022-10-19T21:29:31.865Z,13.16
2022-10-19T21:31:58.544Z,13.09
2022-10-19T21:34:29.964Z,13.17
2022-10-19T21:36:57.714Z,13.07
2022-10-19T21:39:24.362Z,12.99
2022-10-19T21:41:51.007Z,12.91
2022-10-19T21:44:18.687Z,12.84
2022-10-19T21:46:47.885Z,12.92
2022-10-19T21:49:15.135Z,12.84
2022-10-19T21:51:47.390Z,12.83
2022-10-19T21:54:19.262Z,12.79
2022-10-19T21:56:47.290Z,12.74
2022-10-19T21:59:15.053Z,12.73
2022-10-19T22:01:42.027Z,12.73
2022-10-19T22:04:16.920Z,12.74
2022-10-19T22:06:44.171Z,12.74
2022-10-19T22:09:14.110Z,12.80
2022-10-19T22:11:40.780Z,12.74
2022-10-19T22:14:07.622Z,12.79
2022-10-19T22:16:36.974Z,12.95
2022-10-19T22:19:05.351Z,12.69
2022-10-19T22:21:33.687Z,12.62
2022-10-19T22:24:06.814Z,12.50
2022-10-19T22:26:47.881Z,12.63
2022-10-19T22:29:15.018Z,12.54
2022-10-19T22:31:41.980Z,12.52
2022-10-19T22:34:14.834Z,12.50
2022-10-19T22:36:42.071Z,12.60
2022-10-19T22:39:09.163Z,12.57
2022-10-19T22:41:35.771Z,12.50
2022-10-19T22:44:02.537Z,12.50
2022-10-19T22:46:29.156Z,12.67
2022-10-19T22:48:55.801Z,12.65
2022-10-19T22:51:22.454Z,12.58
2022-10-19T22:53:49.013Z,12.49
2022-10-19T22:56:15.630Z,12.64
2022-10-19T22:58:42.278Z,12.56
2022-10-19T23:01:11.582Z,12.71
2022-10-19T23:03:40.342Z,12.63
2022-10-19T23:06:08.620Z,12.69
2022-10-19T23:08:35.424Z,12.56
2022-10-19T23:11:02.163Z,12.42
2022-10-19T23:13:28.963Z,12.46
2022-10-19T23:15:55.687Z,12.25
2022-10-19T23:18:22.344Z,12.29
2022-10-19T23:21:03.999Z,12.15
2022-10-19T23:23:32.542Z,12.18
2022-10-19T23:26:03.625Z,12.01
2022-10-19T23:28:31.599Z,11.93
2022-10-19T23:31:04.746Z,11.93
2022-10-19T23:33:31.956Z,11.86
2022-10-19T23:36:07.138Z,11.74
2022-10-19T23:38:34.483Z,11.91
2022-10-19T23:41:01.188Z,11.64
2022-10-19T23:43:28.073Z,11.73
2022-10-19T23:45:54.765Z,11.70
2022-10-19T23:48:21.557Z,11.71
2022-10-19T23:51:00.045Z,11.82
2022-10-19T23:53:27.965Z,11.83
2022-10-19T23:56:02.398Z,11.85
2022-10-19T23:58:29.366Z,11.74
